• Join FlightAware (Why Join?)
  • Login
  • US Flag 
02:13AM EDT


 

Airport Tracker/Info


-or-


 

Live Flight TrackerFlight Track Log ✈ WIS650 ✈ 01-May-2012 ✈ KFAR - KANE

Flight Track Log - Related Links

Times and Time Zones

All times are in EDT time to prevent confusion due to time zone crossing. See the WIS650 flight status page for this flight to view local times or setup timezone preferences in your user account.

Time Position Orientation Groundspeed Altitude Reporting Facility
EDT Latitude Longitude Course Direction KTS MPH feet Rate Location/Type
08:00PM 46.9066 -96.7874 135° Southeast  Level FlightAware Approximate
08:01PM 46.8727 -96.7200 139° Southeast  Level FlightAware Approximate
08:02PM 46.8318 -96.6740 137° Southeast  Level FlightAware Approximate
08:03PM 46.7828 -96.6072 131° Southeast 186 214 8,300  Level Minneapolis Center
08:04PM 46.7489 -96.5506 132° Southeast 180 207 9,000 300 Climbing Minneapolis Center
08:05PM 46.7069 -96.4817 130° Southeast 205 236 9,000  Level Minneapolis Center
08:06PM 46.6692 -96.4161 131° Southeast 226 260 9,000  Level Minneapolis Center
08:07PM 46.6192 -96.3317 130° Southeast 233 268 9,000  Level Minneapolis Center
08:08PM 46.5753 -96.2567 131° Southeast 238 274 9,000  Level Minneapolis Center
08:09PM 46.5311 -96.1819 132° Southeast 238 274 9,000  Level Minneapolis Center
08:10PM 46.4911 -96.1167 130° Southeast 243 280 9,000  Level Minneapolis Center
08:11PM 46.4469 -96.0392 132° Southeast 243 280 9,100  Climbing Minneapolis Center
08:12PM 46.3967 -95.9586 131° Southeast 243 280 9,100  Level Minneapolis Center
08:13PM 46.3506 -95.8811 131° Southeast 248 285 9,100  Level Minneapolis Center
08:14PM 46.3083 -95.8103 131° Southeast 253 291 9,100  Level Minneapolis Center
08:15PM 46.2639 -95.7361 132° Southeast 253 291 9,100  Level Minneapolis Center
08:16PM 46.2175 -95.6622 129° Southeast 241 277 9,100  Level Minneapolis Center
08:17PM 46.1711 -95.5794 141° Southeast 254 292 9,100  Level Minneapolis Center
08:18PM 46.1161 -95.5144 142° Southeast 246 283 9,100  Level Minneapolis Center
08:19PM 46.0631 -95.4556 138° Southeast 246 283 9,100  Level Minneapolis Center
08:20PM 46.0100 -95.3878 151° Southeast 246 283 9,100  Level Minneapolis Center
08:21PM 45.9544 -95.3442 142° Southeast 238 274 9,100  Level Minneapolis Center
08:22PM 45.9014 -95.2856 145° Southeast 232 267 9,100  Level Minneapolis Center
08:23PM 45.8461 -95.2300 142° Southeast 239 275 9,100  Level Minneapolis Center
08:24PM 45.7969 -95.1750 144° Southeast 246 283 9,100  Level Minneapolis Center
08:25PM 45.7414 -95.1167 143° Southeast 251 289 9,100  Level Minneapolis Center
08:26PM 45.6842 -95.0556 149° Southeast 245 282 9,100 -60 Level Minneapolis Center
08:27PM 45.6222 -95.0031 142° Southeast 257 296 9,000 -60 Descending Minneapolis Center
08:28PM 45.5689 -94.9425 146° Southeast 257 296 9,000 -180 Level Minneapolis Center
08:29PM 45.5092 -94.8844 144° Southeast 257 296 8,700 -480 Descending Minneapolis Center
08:30PM 45.4497 -94.8239 145° Southeast 262 302 8,100 -600 Descending Minneapolis Center
08:31PM 45.3858 -94.7600 142° Southeast 256 295 7,500 -420 Descending Minneapolis Center
08:32PM 45.3283 -94.6967 128° Southeast 256 295 7,300 -240 Descending Minneapolis Center
08:33PM 45.2894 -94.6250 98° East 249 287 7,100 -120 Descending Minneapolis Center
08:34PM 45.2800 -94.5244 97° East 236 272 7,100 -120 Level Minneapolis Center
08:35PM 45.2706 -94.4183 92° East 251 289 6,900 -420 Descending Minneapolis Center
08:36PM 45.2689 -94.3550 94° East 268 308 6,500 -780 Descending FAA TRACON SMA TRACON (SMA)
08:36PM 45.2653 -94.2897 100° East 268 308 6,000 -480 Descending FAA TRACON SMA TRACON (SMA)
08:37PM 45.2569 -94.2200 98° East 261 300 5,900 -120 Descending FAA TRACON SMA TRACON (SMA)
08:38PM 45.2500 -94.1519 100° East 252 290 5,900  Level FAA TRACON SMA TRACON (SMA)
08:38PM 45.2431 -94.0933 76° East 247 284 5,900  Level FAA TRACON SMA TRACON (SMA)
08:39PM 45.2550 -94.0267 72° East 255 293 5,900 -300 Level FAA TRACON SMA TRACON (SMA)
08:40PM 45.2692 -93.9631 77° East 246 283 5,500 -660 Descending FAA TRACON SMA TRACON (SMA)
08:40PM 45.2781 -93.9103 76° East 229 264 5,100 -420 Descending FAA TRACON SMA TRACON (SMA)
08:41PM 45.2875 -93.8550 74° East 211 243 5,000 -120 Descending FAA TRACON SMA TRACON (SMA)
08:42PM 45.2978 -93.8039 85° East 196 226 5,000 -240 Level FAA TRACON SMA TRACON (SMA)
08:42PM 45.3003 -93.7586 84° East 189 217 4,700 -480 Descending FAA TRACON SMA TRACON (SMA)
08:43PM 45.3042 -93.7058 87° East 196 226 4,400 -240 Descending FAA TRACON SMA TRACON (SMA)
08:44PM 45.3058 -93.6519 102° East 197 227 4,400 -420 Level FAA TRACON SMA TRACON (SMA)
08:44PM 45.2989 -93.6058 123° Southeast 197 227 3,900 -720 Descending FAA TRACON SMA TRACON (SMA)
08:45PM 45.2794 -93.5631 124° Southeast 189 217 3,500 -660 Descending FAA TRACON SMA TRACON (SMA)
08:46PM 45.2622 -93.5261 117° Southeast 182 209 3,100 -420 Descending FAA TRACON SMA TRACON (SMA)
08:46PM 45.2458 -93.4800 118° Southeast 189 217 3,000 -180 Descending FAA TRACON SMA TRACON (SMA)
08:47PM 45.2289 -93.4344 116° Southeast 189 217 2,900 -240 Descending FAA TRACON SMA TRACON (SMA)
08:48PM 45.2144 -93.3925 115° Southeast 193 222 2,700 -300 Descending FAA TRACON SMA TRACON (SMA)
08:48PM 45.1986 -93.3439 111° Southeast 198 228 2,500 -420 Descending FAA TRACON SMA TRACON (SMA)
08:49PM 45.1850 -93.2931 105° East 199 229 2,200 -480 Descending FAA TRACON SMA TRACON (SMA)
08:50PM 45.1769 -93.2506 104° East 184 212 1,900 -480 Descending FAA TRACON SMA TRACON (SMA)
08:50PM 45.1703 -93.2131 104° East 144 166 1,600 -480 Descending FAA TRACON SMA TRACON (SMA)